Time;durP1;ratioP1;P1;durP2;ratioP2;P2;SDS_P1;SDS_P2;PMS_P1;PMS_P2;Temp;Humidity;BMP_temperature;BMP_pressure;BME280_temperature;BME280_humidity;BME280_pressure;Samples;Min_cycle;Max_cycle;Signal;HPM_P1;HPM_P2
2022/02/07 00:00:23;;;;;;;0.98;0.40;;;;;;;;;;4433678;32;20102;-55
2022/02/07 00:05:28;;;;;;;0.97;0.23;;;;;;;;;;4433615;32;19976;-55
2022/02/07 00:07:57;;;;;;;2.62;0.50;;;;;;;;;;4434570;32;20147;-55
2022/02/07 00:10:27;;;;;;;0.60;0.32;;;;;;;;;;4427220;32;20070;-55
2022/02/07 00:12:55;;;;;;;1.17;0.50;;;;;;;;;;4436910;32;20070;-55
2022/02/07 00:15:24;;;;;;;0.93;0.45;;;;;;;;;;4432611;32;20050;-52
2022/02/07 00:17:52;;;;;;;0.88;0.30;;;;;;;;;;4437732;32;20089;-56
2022/02/07 00:20:22;;;;;;;1.55;0.37;;;;;;;;;;4435490;32;20042;-56
2022/02/07 00:22:51;;;;;;;0.77;0.30;;;;;;;;;;4435165;32;20057;-56
2022/02/07 00:25:20;;;;;;;1.20;0.30;;;;;;;;;;4427398;32;20506;-53
2022/02/07 00:27:49;;;;;;;0.20;0.20;;;;;;;;;;4434156;32;20064;-56
2022/02/07 00:30:18;;;;;;;0.68;0.30;;;;;;;;;;4433680;32;20049;-54
2022/02/07 00:32:48;;;;;;;0.62;0.35;;;;;;;;;;4436080;32;20088;-55
2022/02/07 00:35:19;;;;;;;0.35;0.20;;;;;;;;;;4435317;32;20093;-56
2022/02/07 00:37:49;;;;;;;0.32;0.20;;;;;;;;;;4436217;32;20080;-55
2022/02/07 00:48:08;;;;;;;0.30;0.20;;;;;;;;;;4433532;32;20105;-56
2022/02/07 00:50:38;;;;;;;0.47;0.20;;;;;;;;;;4430964;32;20381;-55
2022/02/07 00:53:09;;;;;;;0.13;0.13;;;;;;;;;;4423195;32;20114;-55
2022/02/07 00:55:39;;;;;;;0.43;0.20;;;;;;;;;;4410616;32;20092;-56
2022/02/07 00:58:07;;;;;;;0.57;0.28;;;;;;;;;;4414459;32;20050;-55
2022/02/07 01:00:36;;;;;;;0.20;0.20;;;;;;;;;;4416921;32;20041;-55
2022/02/07 01:03:04;;;;;;;0.20;0.20;;;;;;;;;;4421998;32;20072;-56
2022/02/07 01:05:34;;;;;;;0.20;0.20;;;;;;;;;;4424208;32;20034;-52
2022/02/07 01:08:05;;;;;;;0.32;0.20;;;;;;;;;;4423502;32;20061;-56
2022/02/07 01:14:09;;;;;;;0.53;0.10;;;;;;;;;;4423445;32;20065;-56
2022/02/07 01:47:32;;;;;;;0.20;0.20;;;;;;;;;;4419633;32;20458;-56
2022/02/07 01:54:58;;;;;;;0.20;0.20;;;;;;;;;;4436689;32;20104;-55
2022/02/07 01:57:24;;;;;;;0.15;0.10;;;;;;;;;;4435174;32;20068;-56
2022/02/07 01:59:53;;;;;;;0.30;0.20;;;;;;;;;;4433073;32;20453;-55
2022/02/07 02:02:22;;;;;;;0.57;0.10;;;;;;;;;;4433359;32;20070;-57
2022/02/07 02:04:51;;;;;;;0.10;0.10;;;;;;;;;;4436086;32;20495;-54
2022/02/07 02:07:20;;;;;;;0.35;0.20;;;;;;;;;;4437645;32;20105;-56
2022/02/07 02:09:49;;;;;;;0.35;0.10;;;;;;;;;;4434434;32;20099;-56
2022/02/07 02:12:18;;;;;;;0.10;0.10;;;;;;;;;;4435480;32;20107;-56
2022/02/07 02:15:04;;;;;;;0.10;0.10;;;;;;;;;;4435705;32;20106;-56
2022/02/07 02:18:09;;;;;;;0.20;0.10;;;;;;;;;;4436930;32;20103;-56
2022/02/07 02:34:57;;;;;;;0.20;0.15;;;;;;;;;;4438176;32;20104;-55
2022/02/07 02:37:12;;;;;;;0.22;0.22;;;;;;;;;;4436857;32;20057;-56
2022/02/07 02:45:30;;;;;;;0.20;0.20;;;;;;;;;;4435569;32;20062;-54
2022/02/07 02:48:03;;;;;;;0.10;0.10;;;;;;;;;;4434498;32;20544;-55
2022/02/07 02:50:34;;;;;;;0.10;0.10;;;;;;;;;;4433251;32;20104;-56
2022/02/07 02:53:07;;;;;;;0.20;0.10;;;;;;;;;;4433019;32;20326;-56
2022/02/07 02:55:37;;;;;;;0.20;0.10;;;;;;;;;;4430599;32;20054;-53
2022/02/07 02:58:07;;;;;;;0.10;0.10;;;;;;;;;;4430624;32;20385;-56
2022/02/07 03:00:36;;;;;;;0.10;0.10;;;;;;;;;;4428613;32;20476;-56
2022/02/07 03:03:06;;;;;;;0.73;0.15;;;;;;;;;;4431002;32;20077;-56
2022/02/07 03:05:34;;;;;;;0.47;0.13;;;;;;;;;;4430849;32;20074;-56
2022/02/07 03:08:03;;;;;;;0.13;0.13;;;;;;;;;;4431406;32;20081;-54
2022/02/07 03:11:19;;;;;;;0.10;0.10;;;;;;;;;;4431055;32;20523;-56
2022/02/07 03:18:39;;;;;;;0.10;0.10;;;;;;;;;;4427008;32;20043;-56
2022/02/07 03:21:08;;;;;;;0.10;0.10;;;;;;;;;;4431068;32;20143;-52
2022/02/07 03:23:36;;;;;;;0.10;0.10;;;;;;;;;;4430866;32;20076;-57
2022/02/07 03:26:05;;;;;;;0.10;0.10;;;;;;;;;;4429465;32;20489;-55
2022/02/07 03:28:33;;;;;;;0.10;0.10;;;;;;;;;;4430098;32;20165;-56
2022/02/07 03:31:02;;;;;;;0.20;0.10;;;;;;;;;;4428681;32;20682;-56
2022/02/07 03:33:31;;;;;;;0.10;0.10;;;;;;;;;;4429538;32;20227;-55
2022/02/07 03:35:59;;;;;;;0.10;0.10;;;;;;;;;;4431755;32;20078;-53
2022/02/07 03:38:27;;;;;;;0.10;0.10;;;;;;;;;;4430538;32;20063;-56
2022/02/07 03:40:56;;;;;;;0.17;0.17;;;;;;;;;;4430619;32;20057;-55
2022/02/07 03:43:25;;;;;;;0.37;0.10;;;;;;;;;;4433316;32;20464;-56
2022/02/07 03:45:53;;;;;;;0.10;0.10;;;;;;;;;;4432715;32;20067;-54
2022/02/07 03:48:22;;;;;;;0.10;0.10;;;;;;;;;;4428510;32;20093;-56
2022/02/07 03:50:50;;;;;;;0.10;0.10;;;;;;;;;;4430771;32;20599;-56
2022/02/07 03:53:19;;;;;;;0.10;0.10;;;;;;;;;;4430695;32;20096;-55
2022/02/07 03:55:49;;;;;;;0.10;0.10;;;;;;;;;;4429897;32;20113;-56
2022/02/07 03:58:21;;;;;;;0.10;0.10;;;;;;;;;;4430059;32;20077;-56
2022/02/07 04:00:51;;;;;;;0.17;0.10;;;;;;;;;;4434279;32;20137;-56
2022/02/07 04:03:25;;;;;;;0.10;0.10;;;;;;;;;;4433413;32;20092;-54
2022/02/07 04:06:01;;;;;;;0.10;0.10;;;;;;;;;;4433906;32;20077;-56
2022/02/07 04:08:39;;;;;;;0.10;0.10;;;;;;;;;;4429814;32;20069;-56
2022/02/07 04:11:24;;;;;;;0.10;0.10;;;;;;;;;;4433121;32;20493;-55
2022/02/07 04:13:55;;;;;;;0.35;0.10;;;;;;;;;;4435796;32;20494;-57
2022/02/07 04:16:27;;;;;;;0.43;0.20;;;;;;;;;;4434768;32;20396;-56
2022/02/07 04:19:07;;;;;;;0.10;0.10;;;;;;;;;;4435922;32;20141;-56
2022/02/07 04:21:37;;;;;;;0.10;0.10;;;;;;;;;;4434972;32;20146;-55
2022/02/07 04:24:06;;;;;;;0.10;0.10;;;;;;;;;;4433858;32;20114;-56
2022/02/07 04:26:35;;;;;;;0.10;0.10;;;;;;;;;;4432936;32;20553;-56
2022/02/07 04:29:04;;;;;;;0.10;0.10;;;;;;;;;;4433354;32;20459;-55
2022/02/07 04:31:35;;;;;;;0.20;0.20;;;;;;;;;;4435461;32;20050;-56
2022/02/07 04:34:04;;;;;;;0.20;0.20;;;;;;;;;;4434998;32;20145;-56
2022/02/07 04:36:33;;;;;;;0.43;0.20;;;;;;;;;;4435040;32;20129;-56
2022/02/07 04:39:02;;;;;;;0.20;0.20;;;;;;;;;;4436849;32;20052;-56
2022/02/07 04:41:30;;;;;;;0.20;0.20;;;;;;;;;;4437383;32;20049;-56
2022/02/07 04:44:03;;;;;;;0.45;0.20;;;;;;;;;;4434562;32;20049;-56
2022/02/07 04:54:33;;;;;;;0.20;0.13;;;;;;;;;;4436092;32;20102;-56
2022/02/07 05:00:03;;;;;;;0.60;0.30;;;;;;;;;;4432430;32;20085;-54
2022/02/07 05:05:30;;;;;;;0.20;0.20;;;;;;;;;;4432535;32;20058;-55
2022/02/07 05:13:47;;;;;;;0.20;0.20;;;;;;;;;;4430546;32;20101;-55
2022/02/07 05:16:25;;;;;;;0.25;0.10;;;;;;;;;;4428693;32;20070;-56
2022/02/07 05:19:02;;;;;;;0.37;0.20;;;;;;;;;;4434547;32;20130;-55
2022/02/07 05:21:31;;;;;;;0.13;0.10;;;;;;;;;;4434545;32;20085;-55
2022/02/07 05:24:01;;;;;;;0.20;0.20;;;;;;;;;;4434368;32;20082;-53
2022/02/07 05:26:30;;;;;;;1.00;0.30;;;;;;;;;;4431407;32;20111;-56
2022/02/07 05:29:04;;;;;;;0.77;0.22;;;;;;;;;;4429635;32;20069;-55
2022/02/07 05:31:33;;;;;;;0.25;0.20;;;;;;;;;;4433919;32;20095;-54
2022/02/07 05:34:03;;;;;;;0.22;0.20;;;;;;;;;;4427308;32;20103;-56
2022/02/07 05:36:31;;;;;;;0.30;0.20;;;;;;;;;;4433531;32;20101;-55
2022/02/07 05:39:01;;;;;;;0.60;0.25;;;;;;;;;;4432881;32;20627;-55
2022/02/07 05:41:31;;;;;;;0.57;0.20;;;;;;;;;;4427893;32;20090;-55
2022/02/07 05:44:00;;;;;;;1.35;0.30;;;;;;;;;;4432072;32;20058;-54
2022/02/07 05:46:28;;;;;;;0.20;0.20;;;;;;;;;;4431728;32;20105;-56
2022/02/07 05:49:00;;;;;;;0.20;0.20;;;;;;;;;;4432504;32;20050;-56
2022/02/07 05:51:28;;;;;;;0.62;0.30;;;;;;;;;;4435465;32;20038;-56
2022/02/07 05:53:58;;;;;;;0.60;0.20;;;;;;;;;;4432180;32;20107;-56
2022/02/07 05:56:27;;;;;;;0.20;0.20;;;;;;;;;;4434046;32;20543;-57
2022/02/07 05:58:55;;;;;;;0.70;0.20;;;;;;;;;;4431140;32;20641;-55
2022/02/07 06:01:29;;;;;;;0.25;0.20;;;;;;;;;;4431337;32;20091;-56
2022/02/07 06:03:58;;;;;;;1.02;0.25;;;;;;;;;;4432844;32;20022;-56
2022/02/07 06:06:27;;;;;;;0.70;0.30;;;;;;;;;;4433000;32;20526;-56
2022/02/07 06:08:56;;;;;;;0.20;0.20;;;;;;;;;;4427768;32;20129;-57
2022/02/07 06:11:25;;;;;;;0.32;0.20;;;;;;;;;;4432944;32;20054;-55
2022/02/07 06:13:54;;;;;;;0.25;0.20;;;;;;;;;;4433152;32;20112;-53
2022/02/07 06:16:23;;;;;;;0.50;0.30;;;;;;;;;;4431608;32;20073;-56
2022/02/07 06:18:52;;;;;;;0.20;0.20;;;;;;;;;;4430107;32;20081;-53
2022/02/07 06:21:21;;;;;;;0.30;0.20;;;;;;;;;;4432720;32;20471;-56
2022/02/07 06:23:49;;;;;;;0.47;0.28;;;;;;;;;;4430211;32;20023;-56
2022/02/07 06:26:19;;;;;;;0.30;0.22;;;;;;;;;;4432752;32;20045;-55
2022/02/07 06:28:47;;;;;;;0.77;0.30;;;;;;;;;;4431957;32;20057;-54
2022/02/07 06:31:16;;;;;;;0.30;0.20;;;;;;;;;;4425347;32;20046;-54
2022/02/07 06:33:45;;;;;;;0.32;0.20;;;;;;;;;;4430210;32;20676;-52
2022/02/07 06:36:14;;;;;;;0.40;0.10;;;;;;;;;;4430445;32;20103;-56
2022/02/07 06:38:42;;;;;;;0.20;0.20;;;;;;;;;;4429301;32;20537;-56
2022/02/07 06:41:11;;;;;;;0.57;0.22;;;;;;;;;;4428493;32;20472;-56
2022/02/07 06:43:40;;;;;;;1.58;0.20;;;;;;;;;;4431785;32;20504;-55
2022/02/07 06:46:09;;;;;;;0.20;0.20;;;;;;;;;;4429839;32;20521;-55
2022/02/07 06:48:38;;;;;;;0.30;0.20;;;;;;;;;;4429911;32;20046;-55
2022/02/07 06:51:07;;;;;;;0.68;0.28;;;;;;;;;;4430751;32;20069;-56
2022/02/07 06:53:36;;;;;;;0.70;0.30;;;;;;;;;;4430159;32;20138;-54
2022/02/07 06:56:06;;;;;;;0.25;0.20;;;;;;;;;;4426966;32;20840;-55
2022/02/07 06:58:34;;;;;;;0.40;0.20;;;;;;;;;;4427572;32;20072;-56
2022/02/07 07:01:05;;;;;;;0.20;0.20;;;;;;;;;;4428636;32;20065;-54
2022/02/07 07:03:37;;;;;;;0.37;0.30;;;;;;;;;;4432517;32;20381;-53
2022/02/07 07:06:06;;;;;;;0.40;0.30;;;;;;;;;;4431885;32;20400;-54
2022/02/07 07:08:38;;;;;;;0.40;0.30;;;;;;;;;;4430989;32;20128;-55
2022/02/07 07:11:07;;;;;;;0.50;0.20;;;;;;;;;;4429971;32;20077;-54
2022/02/07 07:13:43;;;;;;;0.43;0.20;;;;;;;;;;4430072;32;20659;-56
2022/02/07 07:16:38;;;;;;;0.15;0.15;;;;;;;;;;4428747;32;20473;-51
2022/02/07 07:19:05;;;;;;;0.30;0.28;;;;;;;;;;4431159;32;20068;-54
2022/02/07 07:21:34;;;;;;;0.45;0.20;;;;;;;;;;4434626;32;20658;-56
2022/02/07 07:24:03;;;;;;;0.10;0.10;;;;;;;;;;4433141;32;20141;-56
2022/02/07 07:26:32;;;;;;;0.47;0.28;;;;;;;;;;4433827;32;20406;-52
2022/02/07 07:29:06;;;;;;;0.30;0.20;;;;;;;;;;4429324;32;20125;-54
2022/02/07 07:31:43;;;;;;;0.10;0.10;;;;;;;;;;4432824;32;20069;-52
2022/02/07 07:34:16;;;;;;;0.25;0.20;;;;;;;;;;4433204;32;20404;-52
2022/02/07 07:36:45;;;;;;;0.20;0.20;;;;;;;;;;4434409;32;20567;-53
2022/02/07 07:39:14;;;;;;;0.20;0.15;;;;;;;;;;4426260;32;20053;-56
2022/02/07 07:41:45;;;;;;;0.37;0.22;;;;;;;;;;4431215;32;20084;-54
2022/02/07 07:44:17;;;;;;;0.47;0.25;;;;;;;;;;4428494;32;20436;-55
2022/02/07 07:46:51;;;;;;;0.62;0.20;;;;;;;;;;4429126;32;20109;-53
2022/02/07 07:49:31;;;;;;;0.60;0.30;;;;;;;;;;4419830;32;20090;-54
2022/02/07 07:52:07;;;;;;;0.10;0.10;;;;;;;;;;4428744;32;20686;-56
2022/02/07 08:02:51;;;;;;;0.43;0.30;;;;;;;;;;4427417;32;20487;-56
2022/02/07 08:05:46;;;;;;;0.20;0.13;;;;;;;;;;4430813;32;20526;-55
2022/02/07 08:08:32;;;;;;;0.40;0.22;;;;;;;;;;4433194;32;20403;-53
2022/02/07 08:11:04;;;;;;;0.30;0.28;;;;;;;;;;4434526;32;20046;-55
2022/02/07 08:13:34;;;;;;;0.85;0.20;;;;;;;;;;4433395;32;20085;-56
2022/02/07 08:16:03;;;;;;;1.08;0.30;;;;;;;;;;4429006;32;20392;-52
2022/02/07 08:18:31;;;;;;;0.30;0.20;;;;;;;;;;4432170;32;20104;-56
2022/02/07 08:21:00;;;;;;;0.28;0.20;;;;;;;;;;4438427;32;20161;-55
2022/02/07 08:23:28;;;;;;;1.60;0.22;;;;;;;;;;4436507;32;20038;-52
2022/02/07 08:26:00;;;;;;;0.20;0.20;;;;;;;;;;4431782;32;20094;-52
2022/02/07 08:28:45;;;;;;;0.57;0.20;;;;;;;;;;4436055;32;20135;-55
2022/02/07 08:31:13;;;;;;;0.30;0.20;;;;;;;;;;4435601;32;20089;-54
2022/02/07 08:33:41;;;;;;;0.95;0.25;;;;;;;;;;4433809;32;20111;-54
2022/02/07 08:36:10;;;;;;;1.60;0.30;;;;;;;;;;4433945;32;20065;-52
2022/02/07 08:38:38;;;;;;;0.50;0.28;;;;;;;;;;4435424;32;20117;-55
2022/02/07 08:41:06;;;;;;;0.20;0.20;;;;;;;;;;4438347;32;20076;-52
2022/02/07 08:43:35;;;;;;;0.20;0.20;;;;;;;;;;4435501;32;20065;-56
2022/02/07 08:46:03;;;;;;;0.50;0.20;;;;;;;;;;4437557;32;20045;-55
2022/02/07 08:48:32;;;;;;;2.33;0.20;;;;;;;;;;4433206;32;20623;-55
2022/02/07 08:51:00;;;;;;;0.10;0.10;;;;;;;;;;4431729;32;20119;-56
2022/02/07 08:53:34;;;;;;;0.17;0.13;;;;;;;;;;4435574;32;20072;-54
2022/02/07 08:56:04;;;;;;;0.20;0.20;;;;;;;;;;4429033;32;20098;-52
2022/02/07 08:58:35;;;;;;;1.00;0.20;;;;;;;;;;4435446;32;20112;-54
2022/02/07 09:01:15;;;;;;;0.20;0.20;;;;;;;;;;4438657;32;20058;-54
2022/02/07 09:08:54;;;;;;;0.55;0.20;;;;;;;;;;4438175;32;20090;-55
2022/02/07 09:11:22;;;;;;;1.05;0.17;;;;;;;;;;4437051;32;20150;-55
2022/02/07 09:13:54;;;;;;;2.12;0.35;;;;;;;;;;4431807;32;20113;-53
2022/02/07 09:16:33;;;;;;;0.35;0.20;;;;;;;;;;4434527;32;20495;-55
2022/02/07 09:19:01;;;;;;;0.20;0.20;;;;;;;;;;4435380;32;20101;-53
2022/02/07 09:21:30;;;;;;;0.10;0.10;;;;;;;;;;4437810;32;20152;-52
2022/02/07 09:23:59;;;;;;;0.10;0.10;;;;;;;;;;4438689;32;20424;-53
2022/02/07 09:26:27;;;;;;;0.13;0.13;;;;;;;;;;4435842;32;20206;-54
2022/02/07 09:28:56;;;;;;;0.22;0.20;;;;;;;;;;4436007;32;20534;-53
2022/02/07 09:31:24;;;;;;;0.57;0.20;;;;;;;;;;4434659;32;20069;-55
2022/02/07 09:33:55;;;;;;;0.10;0.10;;;;;;;;;;4434009;32;20085;-54
2022/02/07 09:36:24;;;;;;;0.20;0.20;;;;;;;;;;4436056;32;20391;-54
2022/02/07 09:38:53;;;;;;;1.55;0.20;;;;;;;;;;4428133;32;20146;-55
2022/02/07 09:41:22;;;;;;;0.20;0.10;;;;;;;;;;4431231;32;20134;-55
2022/02/07 09:43:51;;;;;;;0.10;0.10;;;;;;;;;;4429174;32;20117;-52
2022/02/07 09:46:23;;;;;;;0.20;0.20;;;;;;;;;;4435654;32;20079;-55
2022/02/07 09:48:52;;;;;;;0.10;0.10;;;;;;;;;;4431534;32;20161;-56
2022/02/07 09:51:20;;;;;;;0.15;0.15;;;;;;;;;;4432600;32;20042;-56
2022/02/07 09:53:48;;;;;;;0.20;0.20;;;;;;;;;;4427338;32;21972;-53
2022/02/07 09:56:17;;;;;;;0.15;0.13;;;;;;;;;;4428279;32;20104;-56
2022/02/07 09:58:50;;;;;;;0.68;0.10;;;;;;;;;;4432374;32;20143;-57
2022/02/07 10:01:26;;;;;;;0.10;0.10;;;;;;;;;;4423582;32;20104;-56
2022/02/07 10:04:01;;;;;;;0.15;0.10;;;;;;;;;;4433020;32;20061;-55
2022/02/07 10:06:39;;;;;;;0.50;0.10;;;;;;;;;;4432316;32;20081;-55
2022/02/07 10:09:20;;;;;;;0.10;0.10;;;;;;;;;;4435964;32;20088;-55
2022/02/07 10:12:07;;;;;;;0.15;0.10;;;;;;;;;;4435190;32;20371;-54
2022/02/07 10:14:52;;;;;;;0.20;0.20;;;;;;;;;;4434478;32;20085;-53
2022/02/07 10:37:41;;;;;;;0.40;0.22;;;;;;;;;;4432533;32;20479;-55
2022/02/07 10:39:48;;;;;;;0.85;0.10;;;;;;;;;;4431658;32;20076;-55
2022/02/07 10:45:03;;;;;;;0.20;0.10;;;;;;;;;;4432754;32;20402;-55
2022/02/07 10:47:41;;;;;;;0.10;0.10;;;;;;;;;;4435023;32;20397;-55
2022/02/07 10:50:12;;;;;;;0.30;0.10;;;;;;;;;;4436409;32;20104;-55
2022/02/07 10:52:49;;;;;;;0.10;0.10;;;;;;;;;;4432206;32;20097;-55
2022/02/07 10:55:38;;;;;;;0.20;0.20;;;;;;;;;;4435242;32;20179;-54
2022/02/07 10:58:07;;;;;;;0.80;0.25;;;;;;;;;;4436647;32;20422;-55
2022/02/07 11:00:40;;;;;;;0.10;0.10;;;;;;;;;;4431607;32;20212;-55
2022/02/07 11:05:42;;;;;;;0.55;0.10;;;;;;;;;;4431827;32;20102;-55
2022/02/07 11:08:26;;;;;;;0.17;0.17;;;;;;;;;;4434192;32;20045;-54
2022/02/07 11:11:10;;;;;;;0.32;0.10;;;;;;;;;;4431916;32;20099;-55
2022/02/07 11:14:03;;;;;;;0.10;0.10;;;;;;;;;;4435463;32;20080;-54
2022/02/07 11:19:56;;;;;;;0.32;0.17;;;;;;;;;;4431554;32;20046;-52
2022/02/07 11:27:59;;;;;;;0.20;0.20;;;;;;;;;;4423872;32;21078;-55
2022/02/07 11:30:47;;;;;;;1.30;0.20;;;;;;;;;;4425945;32;20093;-55
2022/02/07 11:33:34;;;;;;;1.33;0.25;;;;;;;;;;4426401;32;20081;-55
2022/02/07 11:36:04;;;;;;;0.30;0.22;;;;;;;;;;4429313;32;20104;-54
2022/02/07 11:38:32;;;;;;;1.08;0.30;;;;;;;;;;4423702;32;20122;-55
2022/02/07 11:41:02;;;;;;;0.57;0.22;;;;;;;;;;4426544;32;20069;-55
2022/02/07 11:43:31;;;;;;;0.52;0.30;;;;;;;;;;4427952;32;20453;-55
2022/02/07 11:46:05;;;;;;;1.23;0.30;;;;;;;;;;4431635;32;20122;-54
2022/02/07 11:48:33;;;;;;;2.28;0.20;;;;;;;;;;4428142;32;20121;-54
2022/02/07 11:51:05;;;;;;;1.02;0.30;;;;;;;;;;4428385;32;20045;-55
2022/02/07 11:53:35;;;;;;;0.65;0.30;;;;;;;;;;4430498;32;20692;-55
2022/02/07 11:56:18;;;;;;;0.85;0.20;;;;;;;;;;4430586;32;20073;-54
2022/02/07 11:58:52;;;;;;;1.60;0.32;;;;;;;;;;4429722;32;20070;-55
2022/02/07 12:01:20;;;;;;;;;;;;;;;;;;4432048;32;20049;-52
2022/02/07 12:03:53;;;;;;;4.45;0.37;;;;;;;;;;4433948;32;19975;-52
2022/02/07 12:06:24;;;;;;;0.57;0.35;;;;;;;;;;4420700;32;20442;-52
2022/02/07 12:08:56;;;;;;;1.02;0.30;;;;;;;;;;4428165;32;20178;-54
2022/02/07 12:11:42;;;;;;;2.03;0.40;;;;;;;;;;4437393;32;20029;-55
2022/02/07 12:14:30;;;;;;;0.60;0.30;;;;;;;;;;4429877;32;20105;-55
2022/02/07 12:16:59;;;;;;;1.48;0.30;;;;;;;;;;4428726;32;20432;-55
2022/02/07 12:19:35;;;;;;;0.68;0.30;;;;;;;;;;4432645;32;20523;-55
2022/02/07 12:22:17;;;;;;;0.25;0.13;;;;;;;;;;4435374;32;20432;-55
2022/02/07 12:24:57;;;;;;;2.17;0.40;;;;;;;;;;4433693;32;20120;-53
2022/02/07 12:27:28;;;;;;;;;;;;;;;;;;4431203;32;20045;-56
2022/02/07 12:30:45;;;;;;;1.77;0.30;;;;;;;;;;4438157;32;19960;-55
2022/02/07 12:32:48;;;;;;;3.00;0.35;;;;;;;;;;4427098;32;20054;-52
2022/02/07 12:35:16;;;;;;;0.50;0.30;;;;;;;;;;4435174;32;20532;-54
2022/02/07 12:37:45;;;;;;;1.42;0.50;;;;;;;;;;4432173;32;20068;-54
2022/02/07 12:40:13;;;;;;;2.33;0.30;;;;;;;;;;4434668;32;20491;-56
2022/02/07 12:42:43;;;;;;;0.93;0.37;;;;;;;;;;4431596;32;20079;-54
2022/02/07 12:45:12;;;;;;;2.60;0.30;;;;;;;;;;4432301;32;20413;-52
2022/02/07 12:47:40;;;;;;;1.12;0.30;;;;;;;;;;4433179;32;20090;-52
2022/02/07 12:50:10;;;;;;;0.95;0.30;;;;;;;;;;4432433;32;20075;-52
2022/02/07 12:52:38;;;;;;;0.43;0.20;;;;;;;;;;4433242;32;20057;-55
2022/02/07 12:55:07;;;;;;;0.88;0.37;;;;;;;;;;4428541;32;20559;-55
2022/02/07 12:57:39;;;;;;;2.85;0.40;;;;;;;;;;4427415;32;20043;-54
2022/02/07 13:00:09;;;;;;;2.62;0.40;;;;;;;;;;4436326;32;20073;-52
2022/02/07 13:02:41;;;;;;;2.67;0.30;;;;;;;;;;4438704;32;20126;-55
2022/02/07 13:05:10;;;;;;;1.08;0.50;;;;;;;;;;4439529;32;20360;-52
2022/02/07 13:07:43;;;;;;;0.75;0.40;;;;;;;;;;4437806;32;20039;-55
2022/02/07 13:10:20;;;;;;;1.17;0.30;;;;;;;;;;4438617;32;20099;-55
2022/02/07 13:12:55;;;;;;;0.70;0.32;;;;;;;;;;4436003;32;20052;-52
2022/02/07 13:15:25;;;;;;;1.58;0.40;;;;;;;;;;4436887;32;20097;-55
2022/02/07 13:17:57;;;;;;;1.12;0.55;;;;;;;;;;4432081;32;20050;-55
2022/02/07 13:20:26;;;;;;;1.35;0.52;;;;;;;;;;4436883;32;20053;-55
2022/02/07 13:23:05;;;;;;;2.47;0.45;;;;;;;;;;4435983;32;20115;-54
2022/02/07 13:25:44;;;;;;;1.48;0.60;;;;;;;;;;4434638;32;20085;-51
2022/02/07 13:28:14;;;;;;;3.35;0.57;;;;;;;;;;4437783;32;20357;-55
2022/02/07 13:30:43;;;;;;;0.73;0.30;;;;;;;;;;4430478;32;20102;-53
2022/02/07 13:33:11;;;;;;;1.45;0.43;;;;;;;;;;4437233;32;20050;-52
2022/02/07 13:35:45;;;;;;;1.17;0.50;;;;;;;;;;4437748;32;20038;-55
2022/02/07 13:38:14;;;;;;;1.95;0.30;;;;;;;;;;4433884;32;20046;-51
2022/02/07 13:40:49;;;;;;;1.45;0.50;;;;;;;;;;4437163;32;20093;-54
2022/02/07 13:43:22;;;;;;;1.75;0.40;;;;;;;;;;4436201;32;20062;-54
2022/02/07 13:45:54;;;;;;;1.75;0.40;;;;;;;;;;4436862;32;20549;-53
2022/02/07 13:48:23;;;;;;;0.93;0.35;;;;;;;;;;4434984;32;20046;-55
2022/02/07 13:50:53;;;;;;;1.23;0.40;;;;;;;;;;4430608;32;20110;-52
2022/02/07 13:53:23;;;;;;;0.32;0.30;;;;;;;;;;4435379;32;20086;-54
2022/02/07 13:55:59;;;;;;;1.27;0.35;;;;;;;;;;4430893;32;20084;-54
2022/02/07 13:58:33;;;;;;;2.37;0.60;;;;;;;;;;4427235;32;20138;-54
2022/02/07 14:01:01;;;;;;;;;;;;;;;;;;4432002;32;20088;-52
2022/02/07 14:03:33;;;;;;;1.23;0.30;;;;;;;;;;4433650;32;19989;-53
2022/02/07 14:06:07;;;;;;;3.50;0.43;;;;;;;;;;4434279;32;20075;-53
2022/02/07 14:08:35;;;;;;;;;;;;;;;;;;4431005;32;20496;-54
2022/02/07 14:11:13;;;;;;;1.00;0.40;;;;;;;;;;4435617;32;20374;-54
2022/02/07 14:13:44;;;;;;;0.98;0.50;;;;;;;;;;4434723;32;20497;-55
2022/02/07 14:16:14;;;;;;;2.87;0.30;;;;;;;;;;4433545;32;20108;-52
2022/02/07 14:18:47;;;;;;;1.80;0.30;;;;;;;;;;4433820;32;20081;-53
2022/02/07 14:21:17;;;;;;;2.62;0.30;;;;;;;;;;4430375;32;20123;-53
2022/02/07 14:23:47;;;;;;;1.10;0.30;;;;;;;;;;4433134;32;20124;-54
2022/02/07 14:26:37;;;;;;;1.10;0.37;;;;;;;;;;4429697;32;20420;-55
2022/02/07 14:29:06;;;;;;;1.45;0.40;;;;;;;;;;4427067;32;20349;-55
2022/02/07 14:31:35;;;;;;;1.27;0.40;;;;;;;;;;4431245;32;20105;-53
2022/02/07 14:34:03;;;;;;;1.08;0.30;;;;;;;;;;4432971;32;20046;-53
2022/02/07 14:36:33;;;;;;;2.92;0.30;;;;;;;;;;4433370;32;20123;-56
2022/02/07 14:39:01;;;;;;;0.73;0.30;;;;;;;;;;4429649;32;20219;-53
2022/02/07 14:41:31;;;;;;;2.00;0.40;;;;;;;;;;4431661;32;20041;-56
2022/02/07 14:44:02;;;;;;;1.92;0.40;;;;;;;;;;4432398;32;20109;-53
2022/02/07 14:46:37;;;;;;;0.50;0.30;;;;;;;;;;4434278;32;20042;-56
2022/02/07 14:49:08;;;;;;;2.28;0.40;;;;;;;;;;4431938;32;20068;-54
2022/02/07 14:51:37;;;;;;;1.08;0.30;;;;;;;;;;4434943;32;20064;-53
2022/02/07 14:54:05;;;;;;;1.25;0.40;;;;;;;;;;4434291;32;20104;-55
2022/02/07 14:56:34;;;;;;;3.15;0.40;;;;;;;;;;4432116;32;20104;-57
2022/02/07 14:59:02;;;;;;;1.52;0.50;;;;;;;;;;4433230;32;20132;-54
2022/02/07 15:01:30;;;;;;;1.67;0.50;;;;;;;;;;4432247;32;20051;-56
2022/02/07 15:04:00;;;;;;;1.67;0.35;;;;;;;;;;4425761;32;20089;-55
2022/02/07 15:06:28;;;;;;;1.60;0.40;;;;;;;;;;4425707;32;20065;-56
2022/02/07 15:08:56;;;;;;;1.20;0.40;;;;;;;;;;4431873;32;20497;-52
2022/02/07 15:11:27;;;;;;;0.20;0.20;;;;;;;;;;4424419;32;20053;-53
2022/02/07 15:13:55;;;;;;;2.10;0.37;;;;;;;;;;4424805;32;20113;-54
2022/02/07 15:16:23;;;;;;;2.83;0.43;;;;;;;;;;4421762;32;20136;-56
2022/02/07 15:18:53;;;;;;;1.52;0.40;;;;;;;;;;4428937;32;20183;-55
2022/02/07 15:21:24;;;;;;;1.02;0.28;;;;;;;;;;4429144;32;20127;-52
2022/02/07 15:23:54;;;;;;;1.37;0.30;;;;;;;;;;4425392;32;20133;-55
2022/02/07 15:26:24;;;;;;;2.87;0.57;;;;;;;;;;4423766;32;20167;-52
2022/02/07 15:28:54;;;;;;;2.30;0.40;;;;;;;;;;4427023;32;20080;-52
2022/02/07 15:31:29;;;;;;;0.40;0.30;;;;;;;;;;4435132;32;20467;-53
2022/02/07 15:33:58;;;;;;;0.98;0.30;;;;;;;;;;4435837;32;20049;-54
2022/02/07 15:36:27;;;;;;;2.67;0.55;;;;;;;;;;4436411;32;20073;-53
2022/02/07 15:38:55;;;;;;;0.82;0.20;;;;;;;;;;4435199;32;20113;-55
2022/02/07 15:41:24;;;;;;;2.05;0.30;;;;;;;;;;4436069;32;20096;-56
2022/02/07 15:43:53;;;;;;;2.20;0.50;;;;;;;;;;4434133;32;20504;-56
2022/02/07 15:46:21;;;;;;;0.43;0.30;;;;;;;;;;4434522;32;20100;-56
2022/02/07 15:48:49;;;;;;;2.92;0.47;;;;;;;;;;4434455;32;20102;-56
2022/02/07 15:51:18;;;;;;;1.62;0.40;;;;;;;;;;4436235;32;20080;-55
2022/02/07 15:53:46;;;;;;;6.10;0.77;;;;;;;;;;4435394;32;20053;-53
2022/02/07 15:56:15;;;;;;;1.95;0.40;;;;;;;;;;4436649;32;20095;-53
2022/02/07 15:58:43;;;;;;;1.85;0.40;;;;;;;;;;4434781;32;20046;-56
2022/02/07 16:01:12;;;;;;;1.98;0.30;;;;;;;;;;4429262;32;20476;-54
2022/02/07 16:03:40;;;;;;;2.65;0.30;;;;;;;;;;4433032;32;20082;-56
2022/02/07 16:06:08;;;;;;;1.55;0.37;;;;;;;;;;4431475;32;20134;-55
2022/02/07 16:08:37;;;;;;;1.77;0.50;;;;;;;;;;4428282;32;20065;-54
2022/02/07 16:11:08;;;;;;;2.35;0.40;;;;;;;;;;4433059;32;20606;-53
2022/02/07 16:13:37;;;;;;;3.83;0.50;;;;;;;;;;4432785;32;20145;-55
2022/02/07 16:16:10;;;;;;;4.97;0.50;;;;;;;;;;4424753;32;20450;-55
2022/02/07 16:18:39;;;;;;;4.85;0.60;;;;;;;;;;4431806;32;20176;-54
2022/02/07 16:21:09;;;;;;;2.97;0.52;;;;;;;;;;4431481;32;20082;-53
2022/02/07 16:23:38;;;;;;;5.55;0.52;;;;;;;;;;4427606;32;20053;-53
2022/02/07 16:26:08;;;;;;;1.75;0.50;;;;;;;;;;4433496;32;20072;-55
2022/02/07 16:28:37;;;;;;;1.90;0.60;;;;;;;;;;4432102;32;20129;-54
2022/02/07 16:31:06;;;;;;;2.30;0.40;;;;;;;;;;4432538;32;20056;-56
2022/02/07 16:33:34;;;;;;;3.75;0.60;;;;;;;;;;4436061;32;20453;-55
2022/02/07 16:36:03;;;;;;;3.25;0.57;;;;;;;;;;4432896;32;20034;-55
2022/02/07 16:38:32;;;;;;;3.35;0.65;;;;;;;;;;4429412;32;20069;-56
2022/02/07 16:41:01;;;;;;;4.53;0.60;;;;;;;;;;4434238;32;20082;-52
2022/02/07 16:43:35;;;;;;;4.32;0.70;;;;;;;;;;4426442;32;20129;-56
2022/02/07 16:46:25;;;;;;;4.93;0.70;;;;;;;;;;4436287;32;20081;-53
2022/02/07 16:48:53;;;;;;;2.75;0.60;;;;;;;;;;4433853;32;20468;-53
2022/02/07 16:51:21;;;;;;;2.20;0.40;;;;;;;;;;4436205;32;20050;-55
2022/02/07 16:53:50;;;;;;;4.18;0.80;;;;;;;;;;4431159;32;20117;-55
2022/02/07 16:56:18;;;;;;;3.25;0.50;;;;;;;;;;4434191;32;20065;-56
2022/02/07 16:58:49;;;;;;;2.55;0.50;;;;;;;;;;4436117;32;20081;-52
2022/02/07 17:01:19;;;;;;;3.40;0.50;;;;;;;;;;4436631;32;20531;-56
2022/02/07 17:03:47;;;;;;;2.33;0.50;;;;;;;;;;4438212;32;20061;-56
2022/02/07 17:06:19;;;;;;;1.33;0.50;;;;;;;;;;4437993;32;20094;-53
2022/02/07 17:08:48;;;;;;;5.97;0.50;;;;;;;;;;4433646;32;20108;-57
2022/02/07 17:11:16;;;;;;;3.17;0.68;;;;;;;;;;4437029;32;20062;-55
2022/02/07 17:13:44;;;;;;;2.58;0.60;;;;;;;;;;4432657;32;20076;-56
2022/02/07 17:16:13;;;;;;;2.08;0.57;;;;;;;;;;4435704;32;20118;-55
2022/02/07 17:18:41;;;;;;;4.43;0.70;;;;;;;;;;4432311;32;20045;-55
2022/02/07 17:21:10;;;;;;;3.20;0.68;;;;;;;;;;4435872;32;21118;-56
2022/02/07 17:23:38;;;;;;;3.50;0.60;;;;;;;;;;4433150;32;20135;-57
2022/02/07 17:26:07;;;;;;;5.10;0.70;;;;;;;;;;4434503;32;20101;-56
2022/02/07 17:28:40;;;;;;;2.47;0.60;;;;;;;;;;4428065;32;20060;-55